Aérodrome :
LOGIN :

S'inscrire | Disclaimer

   EN    FR    IT 

 










Légende :    VFR   VFR Marginal   IFR   IFR Intensif   IFR Très Intensif
Visi : 
Plafond : 
>= 8 km
>= 3000ft
5 à 8 km
1000 à 3000 ft
1500m à 5 km
500 à 1000 ft
800 à 1500m
200 à 500 ft
< 800m
< 200 ft
Symboles :   Orages  Brouillard  Fortes neiges  Fortes précipitations  Vent > 20 kt
SIGMETs :   Divers  Orages  Givrage  Turbulence  Onde Orograph.  Cendres Volcan.






- Altitude de l'aérodrome : 16 ft
- Code IATA : SDR


LEXJ - Santander Cantabria

DERNIER METAR :
  • 071400Z VRB01KT 9999 BKN027 15/10 Q1022

METARs EXPIRÉS :
  • 071330Z 00000KT 9999 BKN027 15/11 Q1022
  • 071300Z 00000KT 9999 BKN030 16/11 Q1023
  • 071230Z 00000KT 9999 FEW028 SCT054 15/11 Q1023
  • 071200Z 00000KT 9999 SCT032 14/11 Q1023
  • 071130Z 00000KT 9999 SCT032 13/10 Q1023

TAF TAF LEXJ
Valide du 07 à 09h jusqu'au 08 à 09h UTC


070800Z 0709/0809 20005KT 9999 FEW040 TX17/0715Z TN09/0710Z



MET'MAP, la Météo Aéronautique d'un coup d'oeil ! - Copyright ORBIFLY Décembre 2007 - Disclaimer

ORBIFLY MET'MAP TEAM :

Programmation & Développement : Alexandra Zaïnal
Sur une idée originale de : Baudouin d'Aumeries
Assistance à la programmation : Marc-Olivier Méhu
Soutien technique & logistique : Manuel Goepfert

Contact : metmap@orbifly.com




SOURCES & CREDITS :

   NOAA